createdAt,value
2019-02-06T00:02:00.837Z,18.73
2019-02-06T00:04:32.874Z,17.10
2019-02-06T00:07:03.743Z,17.50
2019-02-06T00:09:34.729Z,18.03
2019-02-06T00:12:05.556Z,18.20
2019-02-06T00:14:36.801Z,16.37
2019-02-06T00:17:08.102Z,18.37
2019-02-06T00:19:39.226Z,18.00
2019-02-06T00:22:11.122Z,20.87
2019-02-06T00:24:42.026Z,20.70
2019-02-06T00:27:12.925Z,19.20
2019-02-06T00:29:44.197Z,17.27
2019-02-06T00:32:15.262Z,18.23
2019-02-06T00:34:46.474Z,17.13
2019-02-06T00:37:17.351Z,17.00
2019-02-06T00:39:49.365Z,18.70
2019-02-06T00:42:20.457Z,18.50
2019-02-06T00:44:51.469Z,19.00
2019-02-06T00:47:22.250Z,19.90
2019-02-06T00:49:53.309Z,19.30
2019-02-06T00:52:24.116Z,20.00
2019-02-06T00:54:55.209Z,16.30
2019-02-06T00:57:26.111Z,15.60
2019-02-06T00:59:58.510Z,14.57
2019-02-06T01:02:29.601Z,17.20
2019-02-06T01:05:00.602Z,15.77
2019-02-06T01:07:31.408Z,15.83
2019-02-06T01:10:03.276Z,17.03
2019-02-06T01:12:34.106Z,16.40
2019-02-06T01:15:05.466Z,17.73
2019-02-06T01:17:36.526Z,18.60
2019-02-06T01:20:08.186Z,16.77
2019-02-06T01:22:39.271Z,17.03
2019-02-06T01:25:11.894Z,17.57
2019-02-06T01:27:42.788Z,19.37
2019-02-06T01:30:17.280Z,19.90
2019-02-06T01:32:48.150Z,16.60
2019-02-06T01:35:19.469Z,18.63
2019-02-06T01:37:50.425Z,21.00
2019-02-06T01:40:21.510Z,19.43
2019-02-06T01:42:52.413Z,19.53
2019-02-06T01:45:23.470Z,18.10
2019-02-06T01:47:54.301Z,18.47
2019-02-06T01:50:25.311Z,19.50
2019-02-06T01:52:56.081Z,19.67
2019-02-06T01:55:27.253Z,23.00
2019-02-06T01:57:58.183Z,21.47
2019-02-06T02:00:29.387Z,21.30
2019-02-06T02:03:00.452Z,19.03
2019-02-06T02:05:31.504Z,22.70
2019-02-06T02:08:02.406Z,19.30
2019-02-06T02:10:33.592Z,20.13
2019-02-06T02:13:05.096Z,21.47
2019-02-06T02:15:36.305Z,22.20
2019-02-06T02:18:07.618Z,23.00
2019-02-06T02:20:38.509Z,20.63
2019-02-06T02:23:09.476Z,20.50
2019-02-06T02:25:40.519Z,22.73
2019-02-06T02:28:11.468Z,20.60
2019-02-06T02:30:48.849Z,21.30
2019-02-06T02:33:19.793Z,19.77
2019-02-06T02:35:51.889Z,20.13
2019-02-06T02:38:22.797Z,22.00
2019-02-06T02:40:54.189Z,21.63
2019-02-06T02:43:25.079Z,20.33
2019-02-06T02:45:56.549Z,18.77
2019-02-06T02:48:27.368Z,18.63
2019-02-06T02:50:58.265Z,21.03
2019-02-06T02:53:29.059Z,18.07
2019-02-06T02:56:00.139Z,19.20
2019-02-06T02:58:31.018Z,16.77
2019-02-06T03:01:20.018Z,18.90
2019-02-06T03:04:10.171Z,19.53
2019-02-06T03:06:42.764Z,20.40
2019-02-06T03:09:14.105Z,19.03
2019-02-06T03:11:45.110Z,19.73
2019-02-06T03:14:16.170Z,18.03
2019-02-06T03:16:47.473Z,18.27
2019-02-06T03:19:18.269Z,17.40
2019-02-06T03:21:49.271Z,19.93
2019-02-06T03:24:20.237Z,19.97
2019-02-06T03:26:51.156Z,18.47
2019-02-06T03:29:22.111Z,18.90
2019-02-06T03:31:53.138Z,17.60
2019-02-06T03:34:24.007Z,18.97
2019-02-06T03:36:54.998Z,17.30
2019-02-06T03:39:25.781Z,18.37
2019-02-06T03:41:56.759Z,19.77
2019-02-06T03:44:27.644Z,17.70
2019-02-06T03:46:58.548Z,18.10
2019-02-06T03:49:29.421Z,17.00
2019-02-06T03:52:01.691Z,16.67
2019-02-06T03:54:32.844Z,16.37
2019-02-06T03:57:03.735Z,14.93
2019-02-06T03:59:34.607Z,15.97
2019-02-06T04:02:05.685Z,16.00
2019-02-06T04:04:36.602Z,15.20
2019-02-06T04:07:07.508Z,15.37
2019-02-06T04:09:38.379Z,14.90
2019-02-06T04:12:10.071Z,15.53
2019-02-06T04:14:40.955Z,16.93
2019-02-06T04:17:11.770Z,15.93
2019-02-06T04:19:42.640Z,15.83
2019-02-06T04:22:13.654Z,16.90
2019-02-06T04:24:44.727Z,14.93
2019-02-06T04:27:15.907Z,14.60
2019-02-06T04:29:46.895Z,15.07
2019-02-06T04:32:18.186Z,15.60
2019-02-06T04:34:49.185Z,16.03
2019-02-06T04:37:20.177Z,14.73
2019-02-06T04:39:50.954Z,16.57
2019-02-06T04:42:22.671Z,19.03
2019-02-06T04:44:53.644Z,19.97
2019-02-06T04:47:24.955Z,17.13
2019-02-06T04:49:55.759Z,17.30
2019-02-06T04:52:26.801Z,20.10
2019-02-06T04:54:57.637Z,19.87
2019-02-06T04:57:28.688Z,20.83
2019-02-06T04:59:59.694Z,20.30
2019-02-06T05:02:30.682Z,18.03
2019-02-06T05:05:01.470Z,17.23
2019-02-06T05:07:32.457Z,19.33
2019-02-06T05:10:03.361Z,17.53
2019-02-06T05:12:35.589Z,18.00
2019-02-06T05:15:06.809Z,19.20
2019-02-06T05:17:37.922Z,19.90
2019-02-06T05:20:29.449Z,20.40
2019-02-06T05:23:00.476Z,19.63
2019-02-06T05:25:31.512Z,19.67
2019-02-06T05:28:02.345Z,18.43
2019-02-06T05:30:33.297Z,17.90
2019-02-06T05:33:04.283Z,19.67
2019-02-06T05:35:35.366Z,21.10
2019-02-06T05:38:06.570Z,17.97
2019-02-06T05:40:37.353Z,20.20
2019-02-06T05:43:08.338Z,19.10
2019-02-06T05:45:39.220Z,19.97
2019-02-06T05:48:09.958Z,18.67
2019-02-06T05:50:40.794Z,17.70
2019-02-06T05:53:11.977Z,17.53
2019-02-06T05:55:42.888Z,17.23
2019-02-06T05:58:13.935Z,16.83
2019-02-06T06:00:47.241Z,16.90
2019-02-06T06:03:18.217Z,16.90
2019-02-06T06:05:49.079Z,17.07
2019-02-06T06:08:20.003Z,16.87
2019-02-06T06:10:51.065Z,15.77
2019-02-06T06:13:22.087Z,15.57
2019-02-06T06:15:53.042Z,16.60
2019-02-06T06:18:24.063Z,17.60
2019-02-06T06:20:55.142Z,16.53
2019-02-06T06:23:26.212Z,18.40
2019-02-06T06:25:57.167Z,16.53
2019-02-06T06:28:28.204Z,20.50
2019-02-06T06:30:59.101Z,19.07
2019-02-06T06:33:30.386Z,18.77
2019-02-06T06:36:01.267Z,18.23
2019-02-06T06:38:33.180Z,17.90
2019-02-06T06:41:04.168Z,19.40
2019-02-06T06:43:35.165Z,21.47
2019-02-06T06:46:06.245Z,18.70
2019-02-06T06:48:37.447Z,20.27
2019-02-06T06:51:08.229Z,19.73
2019-02-06T06:53:39.237Z,18.63
2019-02-06T06:56:10.114Z,19.47
2019-02-06T06:58:41.101Z,20.37
2019-02-06T07:01:12.421Z,21.63
2019-02-06T07:03:43.296Z,17.77
2019-02-06T07:06:14.165Z,23.67
2019-02-06T07:08:45.358Z,22.43
2019-02-06T07:11:16.167Z,23.57
2019-02-06T07:13:47.258Z,22.17
2019-02-06T07:16:18.134Z,24.30
2019-02-06T07:18:49.025Z,23.27
2019-02-06T07:21:19.912Z,22.90
2019-02-06T07:23:50.998Z,23.03
2019-02-06T07:26:21.811Z,20.90
2019-02-06T07:28:52.861Z,22.10
2019-02-06T07:31:23.765Z,20.30
2019-02-06T07:33:54.859Z,21.60
2019-02-06T07:36:25.760Z,20.77
2019-02-06T07:38:57.040Z,20.90
2019-02-06T07:41:28.229Z,22.37
2019-02-06T07:43:59.150Z,19.63
2019-02-06T07:46:30.046Z,19.70
2019-02-06T07:49:01.012Z,17.57
2019-02-06T07:51:31.787Z,17.07
2019-02-06T07:54:02.787Z,18.30
2019-02-06T07:56:33.562Z,18.00
2019-02-06T07:59:04.742Z,18.07
2019-02-06T08:01:35.657Z,21.37
2019-02-06T08:04:06.810Z,21.33
2019-02-06T08:06:37.632Z,21.60
2019-02-06T08:09:10.261Z,23.27
2019-02-06T08:11:41.137Z,24.73
2019-02-06T08:14:12.235Z,20.80
2019-02-06T08:16:43.032Z,22.30
2019-02-06T08:19:14.047Z,29.87
2019-02-06T08:21:45.297Z,29.50
2019-02-06T08:24:16.272Z,31.30
2019-02-06T08:26:47.174Z,40.07
2019-02-06T08:29:18.275Z,52.13
2019-02-06T08:31:49.074Z,55.83
2019-02-06T08:34:20.059Z,72.17
2019-02-06T08:36:50.954Z,50.43
2019-02-06T08:39:22.684Z,31.20
2019-02-06T08:41:53.625Z,22.80
2019-02-06T08:44:24.447Z,21.37
2019-02-06T08:46:55.521Z,21.03
2019-02-06T08:49:26.412Z,21.60
2019-02-06T08:51:57.180Z,21.43
2019-02-06T08:54:28.336Z,19.97
2019-02-06T08:56:59.285Z,19.53
2019-02-06T08:59:30.265Z,19.33
2019-02-06T09:02:01.561Z,20.53
2019-02-06T09:04:32.447Z,20.00
2019-02-06T09:07:03.325Z,18.30
2019-02-06T09:09:34.405Z,21.93
2019-02-06T09:12:05.302Z,18.93
2019-02-06T09:14:36.710Z,18.00
2019-02-06T09:17:07.708Z,17.43
2019-02-06T09:19:38.696Z,20.37
2019-02-06T09:22:09.589Z,19.20
2019-02-06T09:24:40.648Z,20.57
2019-02-06T09:27:11.651Z,22.47
2019-02-06T09:29:42.758Z,21.13
2019-02-06T09:32:13.633Z,24.07
2019-02-06T09:34:44.574Z,19.00
2019-02-06T09:37:15.421Z,18.53
2019-02-06T09:39:46.326Z,19.00
2019-02-06T09:42:17.202Z,18.33
2019-02-06T09:44:48.193Z,19.50
2019-02-06T09:47:19.157Z,17.93
2019-02-06T09:49:50.090Z,17.50
2019-02-06T09:52:20.936Z,18.67
2019-02-06T09:54:51.827Z,20.07
2019-02-06T09:57:23.030Z,19.70
2019-02-06T09:59:54.106Z,18.23
2019-02-06T10:02:26.015Z,18.00
2019-02-06T10:04:57.017Z,16.60
2019-02-06T10:07:27.893Z,19.70
2019-02-06T10:09:59.290Z,18.97
2019-02-06T10:12:30.105Z,19.87
2019-02-06T10:15:01.085Z,19.70
2019-02-06T10:17:31.957Z,19.00
2019-02-06T10:20:02.951Z,19.23
2019-02-06T10:22:33.749Z,16.37
2019-02-06T10:25:05.420Z,18.90
2019-02-06T10:27:36.419Z,18.63
2019-02-06T10:30:09.174Z,17.20
2019-02-06T10:32:39.965Z,17.30
2019-02-06T10:35:11.114Z,19.20
2019-02-06T10:37:42.023Z,16.20
2019-02-06T10:40:13.144Z,16.70
2019-02-06T10:42:44.012Z,16.60
2019-02-06T10:45:15.495Z,17.57
2019-02-06T10:47:47.621Z,17.97
2019-02-06T10:50:21.271Z,16.03
2019-02-06T10:52:52.180Z,17.07
2019-02-06T10:55:23.365Z,18.80
2019-02-06T10:57:54.261Z,16.63
2019-02-06T11:00:31.500Z,16.40
2019-02-06T11:03:02.384Z,17.17
2019-02-06T11:05:33.277Z,16.33
2019-02-06T11:08:04.344Z,16.73
2019-02-06T11:10:35.599Z,15.40
2019-02-06T11:13:07.032Z,20.97
2019-02-06T11:15:38.364Z,16.07
2019-02-06T11:18:09.435Z,14.20
2019-02-06T11:20:40.747Z,16.33
2019-02-06T11:23:11.729Z,15.70
2019-02-06T11:25:42.834Z,13.47
2019-02-06T11:28:14.209Z,13.70
2019-02-06T11:30:45.402Z,12.50
2019-02-06T11:33:16.312Z,12.50
2019-02-06T11:35:47.298Z,14.63
2019-02-06T11:38:18.285Z,12.67
2019-02-06T11:40:49.297Z,13.33
2019-02-06T11:43:20.360Z,13.63
2019-02-06T11:45:51.469Z,12.13
2019-02-06T11:48:22.546Z,11.83
2019-02-06T11:50:53.625Z,12.50
2019-02-06T11:53:26.594Z,11.67
2019-02-06T11:55:58.229Z,11.43
2019-02-06T11:58:29.351Z,14.07
2019-02-06T12:01:22.638Z,14.37
2019-02-06T12:03:54.629Z,12.43
2019-02-06T12:06:26.310Z,12.40
2019-02-06T12:08:57.213Z,17.33
2019-02-06T12:11:28.196Z,14.10
2019-02-06T12:13:59.084Z,15.40
2019-02-06T12:16:30.264Z,12.67
2019-02-06T12:19:01.266Z,13.60
2019-02-06T12:21:32.371Z,12.20
2019-02-06T12:24:03.348Z,12.37
2019-02-06T12:26:34.395Z,10.60
2019-02-06T12:29:05.332Z,11.63
2019-02-06T12:31:36.624Z,13.40
2019-02-06T12:34:07.615Z,11.93
2019-02-06T12:36:38.608Z,11.50
2019-02-06T12:39:11.026Z,12.37
2019-02-06T12:41:42.417Z,12.37
2019-02-06T12:44:13.303Z,12.50
2019-02-06T12:46:44.620Z,11.50
2019-02-06T12:49:15.487Z,11.93
2019-02-06T12:51:46.481Z,13.20
2019-02-06T12:54:17.363Z,14.00
2019-02-06T12:56:48.277Z,12.33
2019-02-06T12:59:19.150Z,13.37
2019-02-06T13:01:50.042Z,12.43
2019-02-06T13:04:20.905Z,14.30
2019-02-06T13:06:51.883Z,16.20
2019-02-06T13:09:22.701Z,12.40
2019-02-06T13:11:53.700Z,15.20
2019-02-06T13:14:24.865Z,14.63
2019-02-06T13:16:55.968Z,12.83
2019-02-06T13:19:26.848Z,15.57
2019-02-06T13:21:58.203Z,15.17
2019-02-06T13:24:29.077Z,13.13
2019-02-06T13:27:00.132Z,15.30
2019-02-06T13:29:31.018Z,12.77
2019-02-06T13:32:02.110Z,14.27
2019-02-06T13:34:32.911Z,15.90
2019-02-06T13:37:04.179Z,11.97
2019-02-06T13:39:34.991Z,14.70
2019-02-06T13:42:06.498Z,13.57
2019-02-06T13:44:37.264Z,14.37
2019-02-06T13:47:08.252Z,12.07
2019-02-06T13:49:39.040Z,12.60
2019-02-06T13:52:10.149Z,13.47
2019-02-06T13:54:41.240Z,12.33
2019-02-06T13:57:12.413Z,12.17
2019-02-06T13:59:43.197Z,14.30
2019-02-06T14:02:14.212Z,12.67
2019-02-06T14:04:45.276Z,11.60
2019-02-06T14:07:16.319Z,11.50
2019-02-06T14:09:47.176Z,12.50
2019-02-06T14:12:18.168Z,11.70
2019-02-06T14:14:48.959Z,13.50
2019-02-06T14:17:19.840Z,13.73
2019-02-06T14:19:50.604Z,14.03
2019-02-06T14:22:21.497Z,16.13
2019-02-06T14:25:11.340Z,15.13
2019-02-06T14:27:54.434Z,13.10
2019-02-06T14:30:48.241Z,14.40
2019-02-06T14:34:15.280Z,14.20
2019-02-06T14:37:21.162Z,12.43
2019-02-06T14:40:52.188Z,12.87
2019-02-06T14:44:15.760Z,10.50
2019-02-06T14:47:29.668Z,10.50
2019-02-06T14:50:50.313Z,12.23
2019-02-06T14:53:50.027Z,10.97
2019-02-06T14:57:05.251Z,11.40
2019-02-06T15:00:05.016Z,10.83
2019-02-06T15:03:15.887Z,9.00
2019-02-06T15:06:40.180Z,10.37
2019-02-06T15:09:47.367Z,10.30
2019-02-06T15:12:46.737Z,11.60
2019-02-06T15:15:30.592Z,12.10
2019-02-06T15:18:36.447Z,12.63
2019-02-06T15:21:53.809Z,12.07
2019-02-06T15:24:54.503Z,10.90
2019-02-06T15:28:08.174Z,11.13
2019-02-06T15:31:38.200Z,13.17
2019-02-06T15:34:36.891Z,12.47
2019-02-06T15:37:41.592Z,10.50
2019-02-06T15:41:02.942Z,13.13
2019-02-06T15:44:00.041Z,12.70
2019-02-06T15:47:03.397Z,12.00
2019-02-06T15:50:26.705Z,10.77
2019-02-06T15:53:39.377Z,11.17
2019-02-06T15:56:53.184Z,10.10
2019-02-06T16:00:20.578Z,10.97
2019-02-06T16:03:52.857Z,11.80
2019-02-06T16:06:53.625Z,12.20
2019-02-06T16:10:10.338Z,11.60
2019-02-06T16:13:22.510Z,11.60
2019-02-06T16:16:21.323Z,15.10
2019-02-06T16:19:30.127Z,12.90
2019-02-06T16:22:20.319Z,12.40
2019-02-06T16:25:12.555Z,13.93
2019-02-06T16:28:11.377Z,17.17
2019-02-06T16:31:30.948Z,21.40
2019-02-06T16:34:42.315Z,16.30
2019-02-06T16:37:44.087Z,13.57
2019-02-06T16:40:39.153Z,13.27
2019-02-06T16:43:37.050Z,12.27
2019-02-06T16:46:47.208Z,12.87
2019-02-06T16:49:44.260Z,12.63
2019-02-06T16:53:23.395Z,12.90
2019-02-06T16:56:49.529Z,12.50
2019-02-06T17:00:06.346Z,11.80
2019-02-06T17:03:21.234Z,10.47
2019-02-06T17:06:15.764Z,10.43
2019-02-06T17:09:40.815Z,12.83
2019-02-06T17:13:07.543Z,10.93
2019-02-06T17:16:49.486Z,11.63
2019-02-06T17:20:09.310Z,10.57
2019-02-06T17:23:17.046Z,11.57
2019-02-06T17:26:34.244Z,11.37
2019-02-06T17:29:35.315Z,11.90
2019-02-06T17:32:35.198Z,11.73
2019-02-06T17:35:20.320Z,10.33
2019-02-06T17:38:24.421Z,10.50
2019-02-06T17:41:25.979Z,9.97
2019-02-06T17:44:23.334Z,10.30
2019-02-06T17:47:33.812Z,13.37
2019-02-06T17:51:02.082Z,12.00
2019-02-06T17:54:16.337Z,11.47
2019-02-06T17:56:47.511Z,12.23
2019-02-06T17:59:18.521Z,11.67
2019-02-06T18:01:54.733Z,14.60
2019-02-06T18:04:38.535Z,12.10
2019-02-06T18:07:09.712Z,12.90
2019-02-06T18:09:41.753Z,13.03
2019-02-06T18:12:12.812Z,12.53
2019-02-06T18:14:43.724Z,12.43
2019-02-06T18:17:14.827Z,12.10
2019-02-06T18:19:45.500Z,12.80
2019-02-06T18:22:17.210Z,12.57
2019-02-06T18:24:48.095Z,13.30
2019-02-06T18:27:20.120Z,11.97
2019-02-06T18:29:50.984Z,12.00
2019-02-06T18:32:21.991Z,12.37
2019-02-06T18:34:52.755Z,11.60
2019-02-06T18:37:23.743Z,13.83
2019-02-06T18:39:54.752Z,14.23
2019-02-06T18:42:25.746Z,15.30
2019-02-06T18:44:56.511Z,15.27
2019-02-06T18:47:27.774Z,13.47
2019-02-06T18:49:58.687Z,14.73
2019-02-06T18:52:32.347Z,15.07
2019-02-06T18:55:03.353Z,18.27
2019-02-06T18:57:34.339Z,15.87
2019-02-06T19:00:07.821Z,14.63
2019-02-06T19:02:38.983Z,16.10
2019-02-06T19:05:11.230Z,14.07
2019-02-06T19:07:42.305Z,14.03
2019-02-06T19:10:14.503Z,13.30
2019-02-06T19:12:47.969Z,14.57
2019-02-06T19:15:18.964Z,14.53
2019-02-06T19:17:50.639Z,14.33
2019-02-06T19:20:21.518Z,16.33
2019-02-06T19:22:52.615Z,16.57
2019-02-06T19:25:24.015Z,15.60
2019-02-06T19:27:56.291Z,17.80
2019-02-06T19:30:30.718Z,15.87
2019-02-06T19:33:02.650Z,16.37
2019-02-06T19:35:33.527Z,14.10
2019-02-06T19:38:04.621Z,13.70
2019-02-06T19:40:35.692Z,16.07
2019-02-06T19:43:07.778Z,16.27
2019-02-06T19:45:39.335Z,14.60
2019-02-06T19:48:16.302Z,14.50
2019-02-06T19:50:43.238Z,15.87
2019-02-06T19:53:14.258Z,15.50
2019-02-06T19:55:45.232Z,15.13
2019-02-06T19:58:16.412Z,14.43
2019-02-06T20:00:47.606Z,14.57
2019-02-06T20:03:18.723Z,14.80
2019-02-06T20:05:49.600Z,15.33
2019-02-06T20:08:21.001Z,15.73
2019-02-06T20:10:51.870Z,15.33
2019-02-06T20:13:22.869Z,14.80
2019-02-06T20:15:54.175Z,16.40
2019-02-06T20:18:25.073Z,15.77
2019-02-06T20:20:55.930Z,17.67
2019-02-06T20:23:26.984Z,17.63
2019-02-06T20:25:58.135Z,16.57
2019-02-06T20:28:29.309Z,16.37
2019-02-06T20:31:00.791Z,17.67
2019-02-06T20:33:31.917Z,16.97
2019-02-06T20:36:02.801Z,16.77
2019-02-06T20:38:34.044Z,15.40
2019-02-06T20:41:05.095Z,15.77
2019-02-06T20:43:36.081Z,15.70
2019-02-06T20:46:07.364Z,14.20
2019-02-06T20:48:38.676Z,14.57
2019-02-06T20:51:27.481Z,14.07
2019-02-06T20:53:58.486Z,15.47
2019-02-06T20:56:29.813Z,15.70
2019-02-06T20:59:00.872Z,14.93
2019-02-06T21:01:31.760Z,16.30
2019-02-06T21:04:02.812Z,14.27
2019-02-06T21:06:33.638Z,16.43
2019-02-06T21:09:05.408Z,17.17
2019-02-06T21:11:37.953Z,15.60
2019-02-06T21:14:09.335Z,15.70
2019-02-06T21:16:40.257Z,18.60
2019-02-06T21:19:11.197Z,19.50
2019-02-06T21:21:42.009Z,18.23
2019-02-06T21:24:13.209Z,16.20
2019-02-06T21:26:44.576Z,18.30
2019-02-06T21:29:16.595Z,18.90
2019-02-06T21:31:47.518Z,17.97
2019-02-06T21:34:18.558Z,18.27
2019-02-06T21:36:49.712Z,16.93
2019-02-06T21:39:20.772Z,17.13
2019-02-06T21:41:51.492Z,17.60
2019-02-06T21:44:22.373Z,15.90
2019-02-06T21:46:53.245Z,15.93
2019-02-06T21:49:24.229Z,14.80
2019-02-06T21:51:55.037Z,15.83
2019-02-06T21:54:25.937Z,16.40
2019-02-06T21:56:56.914Z,16.97
2019-02-06T21:59:27.942Z,14.93
2019-02-06T22:01:58.902Z,14.70
2019-02-06T22:04:31.498Z,15.17
2019-02-06T22:07:02.287Z,16.07
2019-02-06T22:09:33.232Z,16.30
2019-02-06T22:12:04.079Z,15.53
2019-02-06T22:14:35.372Z,16.10
2019-02-06T22:17:06.661Z,17.07
2019-02-06T22:19:37.668Z,16.20
2019-02-06T22:22:08.454Z,15.57
2019-02-06T22:24:39.424Z,17.90
2019-02-06T22:27:10.212Z,18.80
2019-02-06T22:29:41.495Z,16.60
2019-02-06T22:32:12.304Z,19.60
2019-02-06T22:34:43.283Z,17.77
2019-02-06T22:37:14.069Z,18.00
2019-02-06T22:39:45.148Z,16.43
2019-02-06T22:42:16.266Z,18.80
2019-02-06T22:44:47.369Z,17.93
2019-02-06T22:47:18.225Z,15.33
2019-02-06T22:49:49.116Z,19.33
2019-02-06T22:52:22.862Z,16.33
2019-02-06T22:54:52.965Z,16.93
2019-02-06T22:57:23.825Z,17.20
2019-02-06T22:59:54.769Z,17.27
2019-02-06T23:02:25.719Z,16.63
2019-02-06T23:04:56.620Z,16.07
2019-02-06T23:07:27.681Z,15.20
2019-02-06T23:09:58.785Z,16.60
2019-02-06T23:12:29.589Z,15.80
2019-02-06T23:15:00.570Z,16.53
2019-02-06T23:17:31.539Z,17.40
2019-02-06T23:20:02.729Z,15.83
2019-02-06T23:22:34.060Z,16.67
2019-02-06T23:25:06.119Z,16.00
2019-02-06T23:27:37.033Z,16.80
2019-02-06T23:30:08.542Z,16.23
2019-02-06T23:32:39.548Z,14.37
2019-02-06T23:35:10.618Z,18.20
2019-02-06T23:37:41.605Z,16.30
2019-02-06T23:40:12.723Z,16.37
2019-02-06T23:42:43.855Z,15.87
2019-02-06T23:45:15.264Z,14.53
2019-02-06T23:47:46.508Z,15.50
2019-02-06T23:50:17.416Z,16.30
2019-02-06T23:52:48.274Z,15.03
2019-02-06T23:55:19.155Z,18.33
2019-02-06T23:57:50.060Z,18.17
